sensor_id;sensor_type;location;lat;lon;timestamp;P1;durP1;ratioP1;P2;durP2;ratioP2
75499;SDS011;64076;51.466;7.260;2022-10-18T00:01:09;2.30;;;1.90;;
75499;SDS011;64076;51.466;7.260;2022-10-18T00:03:35;2.83;;;2.10;;
75499;SDS011;64076;51.466;7.260;2022-10-18T00:06:01;2.58;;;1.85;;
75499;SDS011;64076;51.466;7.260;2022-10-18T00:08:27;3.13;;;2.10;;
75499;SDS011;64076;51.466;7.260;2022-10-18T00:10:53;2.77;;;1.97;;
75499;SDS011;64076;51.466;7.260;2022-10-18T00:13:19;3.00;;;1.83;;
75499;SDS011;64076;51.466;7.260;2022-10-18T00:15:52;2.50;;;1.80;;
75499;SDS011;64076;51.466;7.260;2022-10-18T00:18:20;2.47;;;2.00;;
75499;SDS011;64076;51.466;7.260;2022-10-18T00:21:00;2.42;;;1.98;;
75499;SDS011;64076;51.466;7.260;2022-10-18T00:23:27;3.17;;;2.00;;
75499;SDS011;64076;51.466;7.260;2022-10-18T00:25:58;3.15;;;2.00;;
75499;SDS011;64076;51.466;7.260;2022-10-18T00:28:24;2.63;;;2.00;;
75499;SDS011;64076;51.466;7.260;2022-10-18T00:30:50;2.95;;;2.10;;
75499;SDS011;64076;51.466;7.260;2022-10-18T00:33:15;2.40;;;1.80;;
75499;SDS011;64076;51.466;7.260;2022-10-18T00:35:41;2.83;;;1.73;;
75499;SDS011;64076;51.466;7.260;2022-10-18T00:38:07;3.10;;;1.90;;
75499;SDS011;64076;51.466;7.260;2022-10-18T00:40:32;2.60;;;1.93;;
75499;SDS011;64076;51.466;7.260;2022-10-18T00:42:58;3.05;;;1.80;;
75499;SDS011;64076;51.466;7.260;2022-10-18T00:45:23;2.90;;;2.10;;
75499;SDS011;64076;51.466;7.260;2022-10-18T00:47:54;2.67;;;1.85;;
75499;SDS011;64076;51.466;7.260;2022-10-18T00:50:23;2.43;;;1.67;;
75499;SDS011;64076;51.466;7.260;2022-10-18T00:52:53;2.47;;;1.80;;
75499;SDS011;64076;51.466;7.260;2022-10-18T00:55:22;2.63;;;1.80;;
75499;SDS011;64076;51.466;7.260;2022-10-18T00:57:49;2.70;;;1.80;;
75499;SDS011;64076;51.466;7.260;2022-10-18T01:00:16;2.60;;;1.80;;
75499;SDS011;64076;51.466;7.260;2022-10-18T01:02:42;3.20;;;2.00;;
75499;SDS011;64076;51.466;7.260;2022-10-18T01:05:18;2.47;;;1.90;;
75499;SDS011;64076;51.466;7.260;2022-10-18T01:16:17;2.57;;;2.37;;
75499;SDS011;64076;51.466;7.260;2022-10-18T01:27:13;2.40;;;1.80;;
75499;SDS011;64076;51.466;7.260;2022-10-18T01:30:06;2.50;;;2.10;;
75499;SDS011;64076;51.466;7.260;2022-10-18T01:32:53;2.63;;;2.05;;
75499;SDS011;64076;51.466;7.260;2022-10-18T01:35:25;3.10;;;2.20;;
75499;SDS011;64076;51.466;7.260;2022-10-18T01:37:55;2.83;;;2.30;;
75499;SDS011;64076;51.466;7.260;2022-10-18T01:40:25;2.10;;;1.70;;
75499;SDS011;64076;51.466;7.260;2022-10-18T01:42:53;3.57;;;2.10;;
75499;SDS011;64076;51.466;7.260;2022-10-18T01:45:19;2.30;;;1.80;;
75499;SDS011;64076;51.466;7.260;2022-10-18T01:47:46;4.05;;;2.08;;
75499;SDS011;64076;51.466;7.260;2022-10-18T01:50:13;2.80;;;2.08;;
75499;SDS011;64076;51.466;7.260;2022-10-18T01:52:46;2.70;;;1.60;;
75499;SDS011;64076;51.466;7.260;2022-10-18T01:55:15;2.37;;;1.70;;
75499;SDS011;64076;51.466;7.260;2022-10-18T02:03:36;3.05;;;1.90;;
75499;SDS011;64076;51.466;7.260;2022-10-18T02:05:59;1.90;;;1.58;;
75499;SDS011;64076;51.466;7.260;2022-10-18T02:11:06;2.67;;;1.67;;
75499;SDS011;64076;51.466;7.260;2022-10-18T02:16:04;2.17;;;1.63;;
75499;SDS011;64076;51.466;7.260;2022-10-18T02:18:56;2.50;;;1.58;;
75499;SDS011;64076;51.466;7.260;2022-10-18T02:21:22;2.40;;;1.60;;
75499;SDS011;64076;51.466;7.260;2022-10-18T02:23:51;2.10;;;1.63;;
75499;SDS011;64076;51.466;7.260;2022-10-18T02:26:18;2.30;;;1.85;;
75499;SDS011;64076;51.466;7.260;2022-10-18T02:28:44;2.80;;;1.70;;
75499;SDS011;64076;51.466;7.260;2022-10-18T02:34:01;2.20;;;1.70;;
75499;SDS011;64076;51.466;7.260;2022-10-18T02:36:47;2.33;;;1.70;;
75499;SDS011;64076;51.466;7.260;2022-10-18T02:39:22;2.23;;;1.50;;
75499;SDS011;64076;51.466;7.260;2022-10-18T02:41:52;2.45;;;2.00;;
75499;SDS011;64076;51.466;7.260;2022-10-18T02:44:18;2.40;;;1.77;;
75499;SDS011;64076;51.466;7.260;2022-10-18T02:46:43;2.43;;;1.80;;
75499;SDS011;64076;51.466;7.260;2022-10-18T02:49:10;2.20;;;1.70;;
75499;SDS011;64076;51.466;7.260;2022-10-18T02:51:36;1.97;;;1.60;;
75499;SDS011;64076;51.466;7.260;2022-10-18T02:54:01;2.80;;;1.70;;
75499;SDS011;64076;51.466;7.260;2022-10-18T02:56:27;1.80;;;1.47;;
75499;SDS011;64076;51.466;7.260;2022-10-18T02:58:52;4.50;;;1.70;;
75499;SDS011;64076;51.466;7.260;2022-10-18T03:01:18;2.37;;;1.63;;
75499;SDS011;64076;51.466;7.260;2022-10-18T03:03:43;2.70;;;1.80;;
75499;SDS011;64076;51.466;7.260;2022-10-18T03:06:09;3.58;;;1.98;;
75499;SDS011;64076;51.466;7.260;2022-10-18T03:08:35;2.43;;;1.63;;
75499;SDS011;64076;51.466;7.260;2022-10-18T03:11:00;2.50;;;1.67;;
75499;SDS011;64076;51.466;7.260;2022-10-18T03:13:26;2.27;;;1.70;;
75499;SDS011;64076;51.466;7.260;2022-10-18T03:15:51;2.87;;;1.70;;
75499;SDS011;64076;51.466;7.260;2022-10-18T03:18:17;2.00;;;1.40;;
75499;SDS011;64076;51.466;7.260;2022-10-18T03:20:42;2.60;;;1.48;;
75499;SDS011;64076;51.466;7.260;2022-10-18T03:23:08;2.30;;;1.73;;
75499;SDS011;64076;51.466;7.260;2022-10-18T03:25:34;2.25;;;1.50;;
75499;SDS011;64076;51.466;7.260;2022-10-18T03:27:59;2.43;;;1.70;;
75499;SDS011;64076;51.466;7.260;2022-10-18T03:30:25;2.77;;;1.60;;
75499;SDS011;64076;51.466;7.260;2022-10-18T03:32:50;2.60;;;1.70;;
75499;SDS011;64076;51.466;7.260;2022-10-18T03:35:16;2.40;;;1.90;;
75499;SDS011;64076;51.466;7.260;2022-10-18T03:37:41;2.08;;;1.60;;
75499;SDS011;64076;51.466;7.260;2022-10-18T03:40:07;2.20;;;1.60;;
75499;SDS011;64076;51.466;7.260;2022-10-18T03:42:33;2.30;;;1.70;;
75499;SDS011;64076;51.466;7.260;2022-10-18T03:44:59;3.07;;;1.70;;
75499;SDS011;64076;51.466;7.260;2022-10-18T03:47:24;2.92;;;1.70;;
75499;SDS011;64076;51.466;7.260;2022-10-18T03:49:50;1.90;;;1.50;;
75499;SDS011;64076;51.466;7.260;2022-10-18T03:52:15;2.60;;;1.60;;
75499;SDS011;64076;51.466;7.260;2022-10-18T03:54:41;2.25;;;1.65;;
75499;SDS011;64076;51.466;7.260;2022-10-18T03:57:06;2.33;;;1.70;;
75499;SDS011;64076;51.466;7.260;2022-10-18T03:59:32;2.30;;;1.50;;
75499;SDS011;64076;51.466;7.260;2022-10-18T04:01:57;2.88;;;1.60;;
75499;SDS011;64076;51.466;7.260;2022-10-18T04:04:23;2.33;;;1.80;;
75499;SDS011;64076;51.466;7.260;2022-10-18T04:06:48;2.33;;;1.63;;
75499;SDS011;64076;51.466;7.260;2022-10-18T04:09:14;2.08;;;1.52;;
75499;SDS011;64076;51.466;7.260;2022-10-18T04:11:39;2.77;;;1.77;;
75499;SDS011;64076;51.466;7.260;2022-10-18T04:14:05;2.90;;;1.60;;
75499;SDS011;64076;51.466;7.260;2022-10-18T04:16:31;2.15;;;1.55;;
75499;SDS011;64076;51.466;7.260;2022-10-18T04:18:56;2.80;;;1.77;;
75499;SDS011;64076;51.466;7.260;2022-10-18T04:21:22;3.33;;;1.70;;
75499;SDS011;64076;51.466;7.260;2022-10-18T04:23:48;2.10;;;1.37;;
75499;SDS011;64076;51.466;7.260;2022-10-18T04:26:14;2.33;;;1.58;;
75499;SDS011;64076;51.466;7.260;2022-10-18T04:28:40;2.20;;;1.70;;
75499;SDS011;64076;51.466;7.260;2022-10-18T04:31:07;2.88;;;1.67;;
75499;SDS011;64076;51.466;7.260;2022-10-18T04:33:32;2.25;;;1.70;;
75499;SDS011;64076;51.466;7.260;2022-10-18T04:35:58;2.30;;;1.60;;
75499;SDS011;64076;51.466;7.260;2022-10-18T04:38:24;2.40;;;1.45;;
75499;SDS011;64076;51.466;7.260;2022-10-18T04:40:49;2.43;;;1.60;;
75499;SDS011;64076;51.466;7.260;2022-10-18T04:43:15;2.50;;;1.57;;
75499;SDS011;64076;51.466;7.260;2022-10-18T04:45:40;2.72;;;1.80;;
75499;SDS011;64076;51.466;7.260;2022-10-18T04:48:08;2.33;;;1.52;;
75499;SDS011;64076;51.466;7.260;2022-10-18T04:50:33;5.17;;;1.97;;
75499;SDS011;64076;51.466;7.260;2022-10-18T04:52:59;2.70;;;1.67;;
75499;SDS011;64076;51.466;7.260;2022-10-18T04:55:24;2.27;;;1.90;;
75499;SDS011;64076;51.466;7.260;2022-10-18T04:57:51;2.00;;;1.55;;
75499;SDS011;64076;51.466;7.260;2022-10-18T05:00:17;3.30;;;1.77;;
75499;SDS011;64076;51.466;7.260;2022-10-18T05:02:42;2.00;;;1.40;;
75499;SDS011;64076;51.466;7.260;2022-10-18T05:05:08;2.65;;;1.58;;
75499;SDS011;64076;51.466;7.260;2022-10-18T05:07:33;2.70;;;1.50;;
75499;SDS011;64076;51.466;7.260;2022-10-18T05:09:59;2.23;;;1.57;;
75499;SDS011;64076;51.466;7.260;2022-10-18T05:12:24;2.63;;;1.77;;
75499;SDS011;64076;51.466;7.260;2022-10-18T05:14:50;1.98;;;1.42;;
75499;SDS011;64076;51.466;7.260;2022-10-18T05:17:15;2.40;;;1.40;;
75499;SDS011;64076;51.466;7.260;2022-10-18T05:19:41;2.77;;;1.20;;
75499;SDS011;64076;51.466;7.260;2022-10-18T05:22:06;2.08;;;1.50;;
75499;SDS011;64076;51.466;7.260;2022-10-18T05:24:32;3.17;;;1.30;;
75499;SDS011;64076;51.466;7.260;2022-10-18T05:26:57;4.43;;;1.43;;
75499;SDS011;64076;51.466;7.260;2022-10-18T05:29:23;2.45;;;1.40;;
75499;SDS011;64076;51.466;7.260;2022-10-18T05:31:49;1.90;;;1.40;;
75499;SDS011;64076;51.466;7.260;2022-10-18T05:34:15;1.92;;;1.27;;
75499;SDS011;64076;51.466;7.260;2022-10-18T05:36:41;1.77;;;1.30;;
75499;SDS011;64076;51.466;7.260;2022-10-18T05:39:06;2.13;;;1.63;;
75499;SDS011;64076;51.466;7.260;2022-10-18T05:41:32;3.13;;;1.30;;
75499;SDS011;64076;51.466;7.260;2022-10-18T05:43:57;1.70;;;1.20;;
75499;SDS011;64076;51.466;7.260;2022-10-18T05:46:26;2.27;;;1.30;;
75499;SDS011;64076;51.466;7.260;2022-10-18T05:48:52;1.80;;;1.17;;
75499;SDS011;64076;51.466;7.260;2022-10-18T05:51:17;2.50;;;1.27;;
75499;SDS011;64076;51.466;7.260;2022-10-18T05:53:43;2.08;;;1.35;;
75499;SDS011;64076;51.466;7.260;2022-10-18T05:56:09;2.03;;;1.20;;
75499;SDS011;64076;51.466;7.260;2022-10-18T05:58:38;1.90;;;1.15;;
75499;SDS011;64076;51.466;7.260;2022-10-18T06:01:04;1.77;;;1.13;;
75499;SDS011;64076;51.466;7.260;2022-10-18T06:03:31;2.60;;;1.10;;
75499;SDS011;64076;51.466;7.260;2022-10-18T06:06:00;2.17;;;1.30;;
75499;SDS011;64076;51.466;7.260;2022-10-18T06:08:27;2.25;;;1.00;;
75499;SDS011;64076;51.466;7.260;2022-10-18T06:10:52;1.60;;;1.10;;
75499;SDS011;64076;51.466;7.260;2022-10-18T06:13:18;1.92;;;1.10;;
75499;SDS011;64076;51.466;7.260;2022-10-18T06:15:44;3.07;;;1.03;;
75499;SDS011;64076;51.466;7.260;2022-10-18T06:18:09;1.80;;;1.17;;
75499;SDS011;64076;51.466;7.260;2022-10-18T06:20:35;1.50;;;1.02;;
75499;SDS011;64076;51.466;7.260;2022-10-18T06:23:00;1.60;;;1.23;;
75499;SDS011;64076;51.466;7.260;2022-10-18T06:25:26;1.73;;;1.03;;
75499;SDS011;64076;51.466;7.260;2022-10-18T06:27:51;2.10;;;0.98;;
75499;SDS011;64076;51.466;7.260;2022-10-18T06:30:17;1.70;;;0.90;;
75499;SDS011;64076;51.466;7.260;2022-10-18T06:32:42;1.93;;;1.40;;
75499;SDS011;64076;51.466;7.260;2022-10-18T06:35:08;2.05;;;1.20;;
75499;SDS011;64076;51.466;7.260;2022-10-18T06:37:33;1.67;;;1.17;;
75499;SDS011;64076;51.466;7.260;2022-10-18T06:40:00;1.83;;;1.10;;
75499;SDS011;64076;51.466;7.260;2022-10-18T06:42:26;1.70;;;1.37;;
75499;SDS011;64076;51.466;7.260;2022-10-18T06:44:52;2.00;;;1.33;;
75499;SDS011;64076;51.466;7.260;2022-10-18T06:47:17;1.80;;;1.00;;
75499;SDS011;64076;51.466;7.260;2022-10-18T06:49:43;2.00;;;1.25;;
75499;SDS011;64076;51.466;7.260;2022-10-18T06:52:08;1.93;;;1.30;;
75499;SDS011;64076;51.466;7.260;2022-10-18T06:54:34;2.00;;;1.13;;
75499;SDS011;64076;51.466;7.260;2022-10-18T06:56:59;2.25;;;1.23;;
75499;SDS011;64076;51.466;7.260;2022-10-18T06:59:26;1.70;;;1.17;;
75499;SDS011;64076;51.466;7.260;2022-10-18T07:01:52;1.60;;;0.98;;
75499;SDS011;64076;51.466;7.260;2022-10-18T07:04:18;1.75;;;1.10;;
75499;SDS011;64076;51.466;7.260;2022-10-18T07:06:43;1.83;;;1.07;;
75499;SDS011;64076;51.466;7.260;2022-10-18T07:09:09;2.53;;;1.23;;
75499;SDS011;64076;51.466;7.260;2022-10-18T07:11:34;1.80;;;1.10;;
75499;SDS011;64076;51.466;7.260;2022-10-18T07:14:00;1.90;;;1.17;;
75499;SDS011;64076;51.466;7.260;2022-10-18T07:16:28;1.45;;;0.85;;
75499;SDS011;64076;51.466;7.260;2022-10-18T07:18:54;1.88;;;1.40;;
75499;SDS011;64076;51.466;7.260;2022-10-18T07:21:21;1.67;;;1.10;;
75499;SDS011;64076;51.466;7.260;2022-10-18T07:23:48;1.77;;;1.10;;
75499;SDS011;64076;51.466;7.260;2022-10-18T07:26:24;2.15;;;1.10;;
75499;SDS011;64076;51.466;7.260;2022-10-18T07:28:55;2.13;;;1.05;;
75499;SDS011;64076;51.466;7.260;2022-10-18T07:31:28;1.97;;;1.13;;
75499;SDS011;64076;51.466;7.260;2022-10-18T07:33:58;1.60;;;1.00;;
75499;SDS011;64076;51.466;7.260;2022-10-18T07:36:24;1.92;;;1.10;;
75499;SDS011;64076;51.466;7.260;2022-10-18T07:38:50;3.75;;;1.10;;
75499;SDS011;64076;51.466;7.260;2022-10-18T07:41:17;1.70;;;0.90;;
75499;SDS011;64076;51.466;7.260;2022-10-18T07:43:44;2.70;;;1.10;;
75499;SDS011;64076;51.466;7.260;2022-10-18T07:46:12;4.03;;;1.17;;
75499;SDS011;64076;51.466;7.260;2022-10-18T07:48:38;1.73;;;1.27;;
75499;SDS011;64076;51.466;7.260;2022-10-18T07:51:04;1.73;;;1.17;;
75499;SDS011;64076;51.466;7.260;2022-10-18T07:53:30;1.65;;;1.00;;
75499;SDS011;64076;51.466;7.260;2022-10-18T07:56:02;2.35;;;1.10;;
75499;SDS011;64076;51.466;7.260;2022-10-18T07:58:30;2.05;;;1.20;;
75499;SDS011;64076;51.466;7.260;2022-10-18T08:00:57;2.97;;;1.27;;
75499;SDS011;64076;51.466;7.260;2022-10-18T08:03:27;2.78;;;1.30;;
75499;SDS011;64076;51.466;7.260;2022-10-18T08:05:53;1.70;;;1.17;;
75499;SDS011;64076;51.466;7.260;2022-10-18T08:08:20;3.70;;;1.23;;
75499;SDS011;64076;51.466;7.260;2022-10-18T08:10:46;1.80;;;1.33;;
75499;SDS011;64076;51.466;7.260;2022-10-18T08:13:12;2.97;;;1.15;;
75499;SDS011;64076;51.466;7.260;2022-10-18T08:15:37;2.40;;;1.20;;
75499;SDS011;64076;51.466;7.260;2022-10-18T08:18:03;2.10;;;1.00;;
75499;SDS011;64076;51.466;7.260;2022-10-18T08:20:28;2.20;;;1.10;;
75499;SDS011;64076;51.466;7.260;2022-10-18T08:22:55;2.77;;;1.60;;
75499;SDS011;64076;51.466;7.260;2022-10-18T08:25:21;1.90;;;1.38;;
75499;SDS011;64076;51.466;7.260;2022-10-18T08:27:46;4.20;;;1.67;;
75499;SDS011;64076;51.466;7.260;2022-10-18T08:30:12;3.33;;;1.60;;
75499;SDS011;64076;51.466;7.260;2022-10-18T08:32:38;4.05;;;1.60;;
75499;SDS011;64076;51.466;7.260;2022-10-18T08:35:04;2.17;;;1.48;;
75499;SDS011;64076;51.466;7.260;2022-10-18T08:37:29;2.80;;;1.60;;
75499;SDS011;64076;51.466;7.260;2022-10-18T08:39:56;2.20;;;1.55;;
75499;SDS011;64076;51.466;7.260;2022-10-18T08:42:40;2.43;;;1.90;;
75499;SDS011;64076;51.466;7.260;2022-10-18T08:45:24;2.47;;;1.70;;
75499;SDS011;64076;51.466;7.260;2022-10-18T08:47:51;2.42;;;1.67;;
75499;SDS011;64076;51.466;7.260;2022-10-18T08:50:29;2.35;;;1.80;;
75499;SDS011;64076;51.466;7.260;2022-10-18T08:53:05;2.53;;;1.83;;
75499;SDS011;64076;51.466;7.260;2022-10-18T08:55:59;3.30;;;2.10;;
75499;SDS011;64076;51.466;7.260;2022-10-18T08:58:30;2.40;;;1.80;;
75499;SDS011;64076;51.466;7.260;2022-10-18T09:01:02;5.25;;;1.90;;
75499;SDS011;64076;51.466;7.260;2022-10-18T09:15:11;3.08;;;2.00;;
75499;SDS011;64076;51.466;7.260;2022-10-18T09:20:32;4.47;;;2.47;;
75499;SDS011;64076;51.466;7.260;2022-10-18T09:23:17;3.28;;;2.20;;
75499;SDS011;64076;51.466;7.260;2022-10-18T09:25:45;3.57;;;1.97;;
75499;SDS011;64076;51.466;7.260;2022-10-18T09:31:06;5.05;;;2.70;;
75499;SDS011;64076;51.466;7.260;2022-10-18T09:33:47;4.32;;;2.70;;
75499;SDS011;64076;51.466;7.260;2022-10-18T09:38:47;5.17;;;2.60;;
75499;SDS011;64076;51.466;7.260;2022-10-18T09:41:22;6.40;;;2.47;;
75499;SDS011;64076;51.466;7.260;2022-10-18T09:44:28;4.70;;;2.78;;
75499;SDS011;64076;51.466;7.260;2022-10-18T09:46:49;3.17;;;2.50;;
75499;SDS011;64076;51.466;7.260;2022-10-18T09:49:36;5.80;;;2.72;;
75499;SDS011;64076;51.466;7.260;2022-10-18T09:52:07;3.87;;;2.57;;
75499;SDS011;64076;51.466;7.260;2022-10-18T09:54:42;4.15;;;2.90;;
75499;SDS011;64076;51.466;7.260;2022-10-18T09:57:15;3.28;;;2.42;;
75499;SDS011;64076;51.466;7.260;2022-10-18T09:59:56;3.80;;;2.75;;
75499;SDS011;64076;51.466;7.260;2022-10-18T10:02:23;4.43;;;2.78;;
75499;SDS011;64076;51.466;7.260;2022-10-18T10:04:49;3.10;;;2.47;;
75499;SDS011;64076;51.466;7.260;2022-10-18T10:07:17;3.58;;;3.03;;
75499;SDS011;64076;51.466;7.260;2022-10-18T10:10:06;4.97;;;3.07;;
75499;SDS011;64076;51.466;7.260;2022-10-18T10:12:38;4.28;;;2.60;;
75499;SDS011;64076;51.466;7.260;2022-10-18T10:17:36;3.47;;;2.85;;
75499;SDS011;64076;51.466;7.260;2022-10-18T10:20:13;5.73;;;2.70;;
75499;SDS011;64076;51.466;7.260;2022-10-18T10:22:40;6.65;;;2.88;;
75499;SDS011;64076;51.466;7.260;2022-10-18T10:25:06;4.07;;;2.80;;
75499;SDS011;64076;51.466;7.260;2022-10-18T10:28:32;4.13;;;2.83;;
75499;SDS011;64076;51.466;7.260;2022-10-18T10:30:52;4.00;;;2.90;;
75499;SDS011;64076;51.466;7.260;2022-10-18T10:33:28;8.03;;;2.83;;
75499;SDS011;64076;51.466;7.260;2022-10-18T10:35:57;5.13;;;3.03;;
75499;SDS011;64076;51.466;7.260;2022-10-18T10:38:24;6.15;;;3.28;;
75499;SDS011;64076;51.466;7.260;2022-10-18T10:40:52;7.03;;;3.30;;
75499;SDS011;64076;51.466;7.260;2022-10-18T10:46:23;4.30;;;3.50;;
75499;SDS011;64076;51.466;7.260;2022-10-18T10:48:50;4.25;;;3.50;;
75499;SDS011;64076;51.466;7.260;2022-10-18T10:51:35;5.55;;;3.30;;
75499;SDS011;64076;51.466;7.260;2022-10-18T10:54:15;4.53;;;3.67;;
75499;SDS011;64076;51.466;7.260;2022-10-18T10:57:18;4.50;;;3.73;;
75499;SDS011;64076;51.466;7.260;2022-10-18T11:04:43;4.75;;;4.10;;
75499;SDS011;64076;51.466;7.260;2022-10-18T11:17:38;7.40;;;3.88;;
75499;SDS011;64076;51.466;7.260;2022-10-18T11:20:10;5.70;;;3.83;;
75499;SDS011;64076;51.466;7.260;2022-10-18T11:25:21;5.05;;;4.20;;
75499;SDS011;64076;51.466;7.260;2022-10-18T11:34:02;4.90;;;4.00;;
75499;SDS011;64076;51.466;7.260;2022-10-18T11:36:52;7.30;;;4.13;;
75499;SDS011;64076;51.466;7.260;2022-10-18T11:39:42;6.15;;;4.20;;
75499;SDS011;64076;51.466;7.260;2022-10-18T11:42:15;7.63;;;4.38;;
75499;SDS011;64076;51.466;7.260;2022-10-18T11:47:45;4.70;;;3.85;;
75499;SDS011;64076;51.466;7.260;2022-10-18T11:50:33;6.30;;;3.90;;
75499;SDS011;64076;51.466;7.260;2022-10-18T11:56:01;12.07;;;7.75;;
75499;SDS011;64076;51.466;7.260;2022-10-18T11:58:49;12.23;;;8.95;;
75499;SDS011;64076;51.466;7.260;2022-10-18T12:04:26;6.83;;;5.73;;
75499;SDS011;64076;51.466;7.260;2022-10-18T12:07:00;8.23;;;5.85;;
75499;SDS011;64076;51.466;7.260;2022-10-18T12:09:32;7.80;;;5.65;;
75499;SDS011;64076;51.466;7.260;2022-10-18T12:12:14;11.52;;;8.40;;
75499;SDS011;64076;51.466;7.260;2022-10-18T12:14:56;13.63;;;8.50;;
75499;SDS011;64076;51.466;7.260;2022-10-18T12:17:32;11.97;;;8.23;;
75499;SDS011;64076;51.466;7.260;2022-10-18T12:22:58;9.98;;;7.00;;
75499;SDS011;64076;51.466;7.260;2022-10-18T12:25:30;8.52;;;5.78;;
75499;SDS011;64076;51.466;7.260;2022-10-18T12:28:02;7.10;;;5.47;;
75499;SDS011;64076;51.466;7.260;2022-10-18T12:30:53;6.40;;;5.40;;
75499;SDS011;64076;51.466;7.260;2022-10-18T12:33:41;6.40;;;5.30;;
75499;SDS011;64076;51.466;7.260;2022-10-18T12:39:05;8.05;;;4.90;;
75499;SDS011;64076;51.466;7.260;2022-10-18T12:41:40;6.07;;;4.93;;
75499;SDS011;64076;51.466;7.260;2022-10-18T12:44:15;6.23;;;4.53;;
75499;SDS011;64076;51.466;7.260;2022-10-18T12:46:44;4.82;;;4.15;;
75499;SDS011;64076;51.466;7.260;2022-10-18T12:52:03;6.33;;;4.70;;
75499;SDS011;64076;51.466;7.260;2022-10-18T12:54:35;6.07;;;4.57;;
75499;SDS011;64076;51.466;7.260;2022-10-18T12:57:04;6.57;;;4.50;;
75499;SDS011;64076;51.466;7.260;2022-10-18T12:59:41;5.28;;;4.03;;
75499;SDS011;64076;51.466;7.260;2022-10-18T13:02:08;6.18;;;4.60;;
75499;SDS011;64076;51.466;7.260;2022-10-18T13:04:44;5.23;;;3.90;;
75499;SDS011;64076;51.466;7.260;2022-10-18T13:07:16;4.60;;;3.75;;
75499;SDS011;64076;51.466;7.260;2022-10-18T13:18:05;4.70;;;3.00;;
75499;SDS011;64076;51.466;7.260;2022-10-18T13:23:41;6.15;;;3.17;;
75499;SDS011;64076;51.466;7.260;2022-10-18T13:31:51;5.73;;;3.40;;
75499;SDS011;64076;51.466;7.260;2022-10-18T13:34:27;4.72;;;2.78;;
75499;SDS011;64076;51.466;7.260;2022-10-18T13:37:00;3.88;;;2.78;;
75499;SDS011;64076;51.466;7.260;2022-10-18T13:39:42;3.85;;;2.70;;
75499;SDS011;64076;51.466;7.260;2022-10-18T13:44:40;4.30;;;2.73;;
75499;SDS011;64076;51.466;7.260;2022-10-18T13:47:31;3.70;;;2.70;;
75499;SDS011;64076;51.466;7.260;2022-10-18T13:55:35;3.40;;;2.17;;
75499;SDS011;64076;51.466;7.260;2022-10-18T14:06:23;3.42;;;2.38;;
75499;SDS011;64076;51.466;7.260;2022-10-18T14:09:01;4.18;;;1.95;;
75499;SDS011;64076;51.466;7.260;2022-10-18T14:16:58;3.10;;;1.90;;
75499;SDS011;64076;51.466;7.260;2022-10-18T14:19:38;2.03;;;1.47;;
75499;SDS011;64076;51.466;7.260;2022-10-18T14:22:19;2.28;;;1.60;;
75499;SDS011;64076;51.466;7.260;2022-10-18T14:24:51;3.83;;;1.80;;
75499;SDS011;64076;51.466;7.260;2022-10-18T14:29:49;3.40;;;1.65;;
75499;SDS011;64076;51.466;7.260;2022-10-18T14:32:30;2.43;;;1.57;;
75499;SDS011;64076;51.466;7.260;2022-10-18T14:34:56;2.97;;;1.45;;
75499;SDS011;64076;51.466;7.260;2022-10-18T14:39:57;2.50;;;1.52;;
75499;SDS011;64076;51.466;7.260;2022-10-18T14:42:24;2.97;;;1.60;;
75499;SDS011;64076;51.466;7.260;2022-10-18T14:44:51;2.88;;;1.73;;
75499;SDS011;64076;51.466;7.260;2022-10-18T14:49:52;2.08;;;1.30;;
75499;SDS011;64076;51.466;7.260;2022-10-18T14:52:19;2.90;;;1.30;;
75499;SDS011;64076;51.466;7.260;2022-10-18T14:54:57;2.30;;;1.30;;
75499;SDS011;64076;51.466;7.260;2022-10-18T14:57:30;2.40;;;1.40;;
75499;SDS011;64076;51.466;7.260;2022-10-18T15:00:02;2.33;;;1.30;;
75499;SDS011;64076;51.466;7.260;2022-10-18T15:02:31;1.83;;;1.35;;
75499;SDS011;64076;51.466;7.260;2022-10-18T15:07:32;2.75;;;1.35;;
75499;SDS011;64076;51.466;7.260;2022-10-18T15:09:59;2.63;;;1.45;;
75499;SDS011;64076;51.466;7.260;2022-10-18T15:12:26;2.40;;;1.10;;
75499;SDS011;64076;51.466;7.260;2022-10-18T15:14:53;2.40;;;1.17;;
75499;SDS011;64076;51.466;7.260;2022-10-18T15:17:23;2.27;;;1.30;;
75499;SDS011;64076;51.466;7.260;2022-10-18T15:19:57;2.25;;;1.13;;
75499;SDS011;64076;51.466;7.260;2022-10-18T15:22:28;2.30;;;1.13;;
75499;SDS011;64076;51.466;7.260;2022-10-18T15:27:42;1.92;;;0.90;;
75499;SDS011;64076;51.466;7.260;2022-10-18T15:32:48;1.80;;;1.10;;
75499;SDS011;64076;51.466;7.260;2022-10-18T15:35:17;1.85;;;1.00;;
75499;SDS011;64076;51.466;7.260;2022-10-18T15:37:46;2.38;;;1.15;;
75499;SDS011;64076;51.466;7.260;2022-10-18T15:45:33;1.80;;;0.85;;
75499;SDS011;64076;51.466;7.260;2022-10-18T15:50:35;2.88;;;0.82;;
75499;SDS011;64076;51.466;7.260;2022-10-18T15:58:17;2.00;;;0.90;;
75499;SDS011;64076;51.466;7.260;2022-10-18T16:00:45;2.40;;;0.80;;
75499;SDS011;64076;51.466;7.260;2022-10-18T16:03:12;1.80;;;0.82;;
75499;SDS011;64076;51.466;7.260;2022-10-18T16:05:38;1.90;;;0.90;;
75499;SDS011;64076;51.466;7.260;2022-10-18T16:08:04;2.07;;;1.03;;
75499;SDS011;64076;51.466;7.260;2022-10-18T16:10:30;1.58;;;0.80;;
75499;SDS011;64076;51.466;7.260;2022-10-18T16:12:55;1.80;;;1.03;;
75499;SDS011;64076;51.466;7.260;2022-10-18T16:15:21;1.60;;;1.00;;
75499;SDS011;64076;51.466;7.260;2022-10-18T16:17:47;3.92;;;1.13;;
75499;SDS011;64076;51.466;7.260;2022-10-18T16:20:20;1.70;;;0.88;;
75499;SDS011;64076;51.466;7.260;2022-10-18T16:22:48;2.10;;;1.25;;
75499;SDS011;64076;51.466;7.260;2022-10-18T16:25:13;1.80;;;1.20;;
75499;SDS011;64076;51.466;7.260;2022-10-18T16:27:39;2.60;;;0.67;;
75499;SDS011;64076;51.466;7.260;2022-10-18T16:30:12;1.90;;;0.95;;
75499;SDS011;64076;51.466;7.260;2022-10-18T16:32:40;2.28;;;1.20;;
75499;SDS011;64076;51.466;7.260;2022-10-18T16:35:06;1.70;;;0.83;;
75499;SDS011;64076;51.466;7.260;2022-10-18T16:37:32;1.85;;;1.10;;
75499;SDS011;64076;51.466;7.260;2022-10-18T16:39:57;2.10;;;1.00;;
75499;SDS011;64076;51.466;7.260;2022-10-18T16:42:23;3.40;;;1.10;;
75499;SDS011;64076;51.466;7.260;2022-10-18T16:44:48;2.45;;;1.40;;
75499;SDS011;64076;51.466;7.260;2022-10-18T16:47:14;2.17;;;1.20;;
75499;SDS011;64076;51.466;7.260;2022-10-18T16:49:40;1.77;;;0.90;;
75499;SDS011;64076;51.466;7.260;2022-10-18T16:52:06;3.43;;;1.27;;
75499;SDS011;64076;51.466;7.260;2022-10-18T16:54:31;2.03;;;1.17;;
75499;SDS011;64076;51.466;7.260;2022-10-18T16:56:57;2.13;;;1.08;;
75499;SDS011;64076;51.466;7.260;2022-10-18T16:59:29;1.70;;;0.90;;
75499;SDS011;64076;51.466;7.260;2022-10-18T17:01:55;2.53;;;0.90;;
75499;SDS011;64076;51.466;7.260;2022-10-18T17:04:21;3.08;;;1.10;;
75499;SDS011;64076;51.466;7.260;2022-10-18T17:06:46;4.33;;;1.00;;
75499;SDS011;64076;51.466;7.260;2022-10-18T17:09:13;1.75;;;0.95;;
75499;SDS011;64076;51.466;7.260;2022-10-18T17:11:39;1.80;;;0.82;;
75499;SDS011;64076;51.466;7.260;2022-10-18T17:14:05;3.10;;;0.97;;
75499;SDS011;64076;51.466;7.260;2022-10-18T17:16:32;2.38;;;1.20;;
75499;SDS011;64076;51.466;7.260;2022-10-18T17:19:00;2.03;;;1.20;;
75499;SDS011;64076;51.466;7.260;2022-10-18T17:21:28;1.87;;;0.93;;
75499;SDS011;64076;51.466;7.260;2022-10-18T17:23:55;3.25;;;1.08;;
75499;SDS011;64076;51.466;7.260;2022-10-18T17:26:27;2.28;;;1.08;;
75499;SDS011;64076;51.466;7.260;2022-10-18T17:28:53;2.38;;;1.00;;
75499;SDS011;64076;51.466;7.260;2022-10-18T17:31:21;1.98;;;1.02;;
75499;SDS011;64076;51.466;7.260;2022-10-18T17:33:47;2.20;;;0.90;;
75499;SDS011;64076;51.466;7.260;2022-10-18T17:36:12;2.00;;;1.30;;
75499;SDS011;64076;51.466;7.260;2022-10-18T17:38:38;3.57;;;0.90;;
75499;SDS011;64076;51.466;7.260;2022-10-18T17:41:07;2.53;;;1.35;;
75499;SDS011;64076;51.466;7.260;2022-10-18T17:43:37;2.23;;;1.00;;
75499;SDS011;64076;51.466;7.260;2022-10-18T17:46:04;2.13;;;1.02;;